sensor_id;sensor_type;location;lat;lon;timestamp;P1;durP1;ratioP1;P2;durP2;ratioP2
48935;SDS011;34745;52.276;10.528;2022-10-22T00:01:26;18.40;;;12.50;;
48935;SDS011;34745;52.276;10.528;2022-10-22T00:03:54;16.77;;;12.60;;
48935;SDS011;34745;52.276;10.528;2022-10-22T00:06:22;22.20;;;12.63;;
48935;SDS011;34745;52.276;10.528;2022-10-22T00:08:49;18.80;;;12.60;;
48935;SDS011;34745;52.276;10.528;2022-10-22T00:11:17;19.47;;;13.00;;
48935;SDS011;34745;52.276;10.528;2022-10-22T00:13:46;17.27;;;13.27;;
48935;SDS011;34745;52.276;10.528;2022-10-22T00:16:13;19.93;;;13.50;;
48935;SDS011;34745;52.276;10.528;2022-10-22T00:18:40;17.30;;;13.27;;
48935;SDS011;34745;52.276;10.528;2022-10-22T00:21:07;17.93;;;13.77;;
48935;SDS011;34745;52.276;10.528;2022-10-22T00:23:38;19.53;;;13.53;;
48935;SDS011;34745;52.276;10.528;2022-10-22T00:26:05;17.57;;;13.57;;
48935;SDS011;34745;52.276;10.528;2022-10-22T00:28:32;20.40;;;14.13;;
48935;SDS011;34745;52.276;10.528;2022-10-22T00:31:00;18.30;;;14.10;;
48935;SDS011;34745;52.276;10.528;2022-10-22T00:33:27;21.40;;;15.10;;
48935;SDS011;34745;52.276;10.528;2022-10-22T00:35:55;23.40;;;14.67;;
48935;SDS011;34745;52.276;10.528;2022-10-22T00:38:23;20.23;;;14.73;;
48935;SDS011;34745;52.276;10.528;2022-10-22T00:40:51;21.43;;;14.87;;
48935;SDS011;34745;52.276;10.528;2022-10-22T00:43:19;21.43;;;14.50;;
48935;SDS011;34745;52.276;10.528;2022-10-22T00:45:46;18.10;;;14.50;;
48935;SDS011;34745;52.276;10.528;2022-10-22T00:48:14;19.20;;;15.07;;
48935;SDS011;34745;52.276;10.528;2022-10-22T00:50:44;18.23;;;14.60;;
48935;SDS011;34745;52.276;10.528;2022-10-22T00:53:16;19.70;;;14.27;;
48935;SDS011;34745;52.276;10.528;2022-10-22T00:55:45;23.70;;;14.37;;
48935;SDS011;34745;52.276;10.528;2022-10-22T00:58:17;21.77;;;14.30;;
48935;SDS011;34745;52.276;10.528;2022-10-22T01:00:46;18.17;;;14.23;;
48935;SDS011;34745;52.276;10.528;2022-10-22T01:03:14;21.27;;;13.87;;
48935;SDS011;34745;52.276;10.528;2022-10-22T01:05:42;15.57;;;13.57;;
48935;SDS011;34745;52.276;10.528;2022-10-22T01:08:23;23.30;;;14.33;;
48935;SDS011;34745;52.276;10.528;2022-10-22T01:10:56;23.40;;;15.07;;
48935;SDS011;34745;52.276;10.528;2022-10-22T01:13:37;18.70;;;13.97;;
48935;SDS011;34745;52.276;10.528;2022-10-22T01:16:15;19.10;;;13.93;;
48935;SDS011;34745;52.276;10.528;2022-10-22T01:18:48;20.10;;;14.23;;
48935;SDS011;34745;52.276;10.528;2022-10-22T01:21:23;18.20;;;14.17;;
48935;SDS011;34745;52.276;10.528;2022-10-22T01:24:03;18.50;;;14.17;;
48935;SDS011;34745;52.276;10.528;2022-10-22T01:26:53;23.57;;;14.00;;
48935;SDS011;34745;52.276;10.528;2022-10-22T01:29:28;17.67;;;13.80;;
48935;SDS011;34745;52.276;10.528;2022-10-22T01:32:00;18.97;;;14.47;;
48935;SDS011;34745;52.276;10.528;2022-10-22T01:34:32;19.33;;;13.87;;
48935;SDS011;34745;52.276;10.528;2022-10-22T01:37:00;18.23;;;14.37;;
48935;SDS011;34745;52.276;10.528;2022-10-22T01:39:28;20.73;;;15.40;;
48935;SDS011;34745;52.276;10.528;2022-10-22T01:41:57;21.83;;;14.57;;
48935;SDS011;34745;52.276;10.528;2022-10-22T01:44:25;22.43;;;14.50;;
48935;SDS011;34745;52.276;10.528;2022-10-22T01:46:56;20.13;;;15.37;;
48935;SDS011;34745;52.276;10.528;2022-10-22T01:49:32;34.53;;;23.20;;
48935;SDS011;34745;52.276;10.528;2022-10-22T01:52:12;23.73;;;15.87;;
48935;SDS011;34745;52.276;10.528;2022-10-22T01:54:51;21.90;;;14.63;;
48935;SDS011;34745;52.276;10.528;2022-10-22T01:57:25;16.77;;;14.10;;
48935;SDS011;34745;52.276;10.528;2022-10-22T02:00:00;20.90;;;14.73;;
48935;SDS011;34745;52.276;10.528;2022-10-22T02:02:33;23.57;;;14.47;;
48935;SDS011;34745;52.276;10.528;2022-10-22T02:05:06;23.47;;;15.13;;
48935;SDS011;34745;52.276;10.528;2022-10-22T02:07:39;18.80;;;15.33;;
48935;SDS011;34745;52.276;10.528;2022-10-22T02:10:09;25.60;;;15.80;;
48935;SDS011;34745;52.276;10.528;2022-10-22T02:12:37;19.73;;;15.63;;
48935;SDS011;34745;52.276;10.528;2022-10-22T02:15:09;18.83;;;14.57;;
48935;SDS011;34745;52.276;10.528;2022-10-22T02:17:38;22.77;;;15.30;;
48935;SDS011;34745;52.276;10.528;2022-10-22T02:20:09;19.93;;;15.20;;
48935;SDS011;34745;52.276;10.528;2022-10-22T02:22:40;19.33;;;14.87;;
48935;SDS011;34745;52.276;10.528;2022-10-22T02:25:08;22.57;;;15.87;;
48935;SDS011;34745;52.276;10.528;2022-10-22T02:27:38;21.93;;;15.27;;
48935;SDS011;34745;52.276;10.528;2022-10-22T02:30:11;17.90;;;14.00;;
48935;SDS011;34745;52.276;10.528;2022-10-22T02:32:48;18.43;;;13.27;;
48935;SDS011;34745;52.276;10.528;2022-10-22T02:35:20;18.30;;;13.87;;
48935;SDS011;34745;52.276;10.528;2022-10-22T02:37:50;19.73;;;13.53;;
48935;SDS011;34745;52.276;10.528;2022-10-22T02:40:20;21.63;;;13.07;;
48935;SDS011;34745;52.276;10.528;2022-10-22T02:42:48;18.47;;;13.10;;
48935;SDS011;34745;52.276;10.528;2022-10-22T02:45:18;18.60;;;14.27;;
48935;SDS011;34745;52.276;10.528;2022-10-22T02:47:46;20.57;;;13.67;;
48935;SDS011;34745;52.276;10.528;2022-10-22T02:50:13;18.87;;;13.77;;
48935;SDS011;34745;52.276;10.528;2022-10-22T02:52:40;26.80;;;14.13;;
48935;SDS011;34745;52.276;10.528;2022-10-22T02:55:08;17.20;;;13.87;;
48935;SDS011;34745;52.276;10.528;2022-10-22T02:57:35;17.97;;;14.00;;
48935;SDS011;34745;52.276;10.528;2022-10-22T03:00:06;16.73;;;12.93;;
48935;SDS011;34745;52.276;10.528;2022-10-22T03:02:39;18.03;;;13.47;;
48935;SDS011;34745;52.276;10.528;2022-10-22T03:05:07;19.23;;;13.07;;
48935;SDS011;34745;52.276;10.528;2022-10-22T03:07:35;20.70;;;12.60;;
48935;SDS011;34745;52.276;10.528;2022-10-22T03:10:03;17.43;;;13.10;;
48935;SDS011;34745;52.276;10.528;2022-10-22T03:12:31;16.80;;;12.57;;
48935;SDS011;34745;52.276;10.528;2022-10-22T03:14:58;15.73;;;13.03;;
48935;SDS011;34745;52.276;10.528;2022-10-22T03:17:26;19.83;;;13.67;;
48935;SDS011;34745;52.276;10.528;2022-10-22T03:19:54;17.67;;;13.33;;
48935;SDS011;34745;52.276;10.528;2022-10-22T03:22:22;18.33;;;13.70;;
48935;SDS011;34745;52.276;10.528;2022-10-22T03:24:54;16.00;;;13.33;;
48935;SDS011;34745;52.276;10.528;2022-10-22T03:27:24;16.37;;;12.73;;
48935;SDS011;34745;52.276;10.528;2022-10-22T03:29:53;18.00;;;13.20;;
48935;SDS011;34745;52.276;10.528;2022-10-22T03:32:22;16.57;;;12.97;;
48935;SDS011;34745;52.276;10.528;2022-10-22T03:34:49;18.90;;;14.00;;
48935;SDS011;34745;52.276;10.528;2022-10-22T03:37:17;21.40;;;14.43;;
48935;SDS011;34745;52.276;10.528;2022-10-22T03:39:45;20.47;;;14.43;;
48935;SDS011;34745;52.276;10.528;2022-10-22T03:42:12;19.60;;;15.33;;
48935;SDS011;34745;52.276;10.528;2022-10-22T03:44:39;25.83;;;14.97;;
48935;SDS011;34745;52.276;10.528;2022-10-22T03:47:06;21.10;;;15.70;;
48935;SDS011;34745;52.276;10.528;2022-10-22T03:49:33;20.17;;;15.70;;
48935;SDS011;34745;52.276;10.528;2022-10-22T03:52:04;20.43;;;15.40;;
48935;SDS011;34745;52.276;10.528;2022-10-22T03:57:07;19.63;;;15.67;;
48935;SDS011;34745;52.276;10.528;2022-10-22T03:59:35;18.83;;;14.07;;
48935;SDS011;34745;52.276;10.528;2022-10-22T04:02:04;20.90;;;14.90;;
48935;SDS011;34745;52.276;10.528;2022-10-22T04:04:31;18.57;;;15.03;;
48935;SDS011;34745;52.276;10.528;2022-10-22T04:06:58;20.90;;;14.90;;
48935;SDS011;34745;52.276;10.528;2022-10-22T04:09:26;21.17;;;14.73;;
48935;SDS011;34745;52.276;10.528;2022-10-22T04:11:57;18.23;;;13.87;;
48935;SDS011;34745;52.276;10.528;2022-10-22T04:14:24;21.23;;;13.80;;
48935;SDS011;34745;52.276;10.528;2022-10-22T04:16:51;20.83;;;13.37;;
48935;SDS011;34745;52.276;10.528;2022-10-22T04:19:18;20.83;;;14.53;;
48935;SDS011;34745;52.276;10.528;2022-10-22T04:21:46;18.10;;;14.33;;
48935;SDS011;34745;52.276;10.528;2022-10-22T04:24:13;22.67;;;15.20;;
48935;SDS011;34745;52.276;10.528;2022-10-22T04:26:40;24.13;;;15.40;;
48935;SDS011;34745;52.276;10.528;2022-10-22T04:29:10;18.10;;;14.23;;
48935;SDS011;34745;52.276;10.528;2022-10-22T04:31:41;22.80;;;15.70;;
48935;SDS011;34745;52.276;10.528;2022-10-22T04:34:09;21.03;;;15.93;;
48935;SDS011;34745;52.276;10.528;2022-10-22T04:36:36;20.40;;;16.13;;
48935;SDS011;34745;52.276;10.528;2022-10-22T04:39:03;26.90;;;16.53;;
48935;SDS011;34745;52.276;10.528;2022-10-22T04:41:31;22.37;;;16.10;;
48935;SDS011;34745;52.276;10.528;2022-10-22T04:44:03;22.87;;;15.57;;
48935;SDS011;34745;52.276;10.528;2022-10-22T04:46:33;23.07;;;16.23;;
48935;SDS011;34745;52.276;10.528;2022-10-22T04:49:01;24.67;;;16.30;;
48935;SDS011;34745;52.276;10.528;2022-10-22T04:51:31;19.63;;;16.33;;
48935;SDS011;34745;52.276;10.528;2022-10-22T04:53:58;22.00;;;16.07;;
48935;SDS011;34745;52.276;10.528;2022-10-22T04:56:26;21.23;;;16.20;;
48935;SDS011;34745;52.276;10.528;2022-10-22T04:58:55;20.70;;;15.67;;
48935;SDS011;34745;52.276;10.528;2022-10-22T05:01:25;22.03;;;15.80;;
48935;SDS011;34745;52.276;10.528;2022-10-22T05:03:57;20.20;;;14.63;;
48935;SDS011;34745;52.276;10.528;2022-10-22T05:06:25;21.03;;;14.63;;
48935;SDS011;34745;52.276;10.528;2022-10-22T05:08:54;19.93;;;14.70;;
48935;SDS011;34745;52.276;10.528;2022-10-22T05:11:27;28.03;;;18.50;;
48935;SDS011;34745;52.276;10.528;2022-10-22T05:13:59;21.30;;;15.97;;
48935;SDS011;34745;52.276;10.528;2022-10-22T05:16:27;23.53;;;18.20;;
48935;SDS011;34745;52.276;10.528;2022-10-22T05:18:56;16.37;;;14.60;;
48935;SDS011;34745;52.276;10.528;2022-10-22T05:21:24;20.70;;;14.60;;
48935;SDS011;34745;52.276;10.528;2022-10-22T05:23:52;18.57;;;13.70;;
48935;SDS011;34745;52.276;10.528;2022-10-22T05:26:20;17.67;;;13.63;;
48935;SDS011;34745;52.276;10.528;2022-10-22T05:28:49;19.00;;;15.63;;
48935;SDS011;34745;52.276;10.528;2022-10-22T05:31:16;20.03;;;14.77;;
48935;SDS011;34745;52.276;10.528;2022-10-22T05:33:45;17.50;;;14.97;;
48935;SDS011;34745;52.276;10.528;2022-10-22T05:36:14;20.20;;;14.43;;
48935;SDS011;34745;52.276;10.528;2022-10-22T05:38:42;21.97;;;15.10;;
48935;SDS011;34745;52.276;10.528;2022-10-22T05:41:11;20.07;;;14.83;;
48935;SDS011;34745;52.276;10.528;2022-10-22T05:43:40;21.97;;;14.27;;
48935;SDS011;34745;52.276;10.528;2022-10-22T05:46:07;21.33;;;13.40;;
48935;SDS011;34745;52.276;10.528;2022-10-22T05:48:36;20.20;;;14.33;;
48935;SDS011;34745;52.276;10.528;2022-10-22T05:51:04;22.60;;;14.00;;
48935;SDS011;34745;52.276;10.528;2022-10-22T05:53:35;22.17;;;14.57;;
48935;SDS011;34745;52.276;10.528;2022-10-22T05:56:05;18.83;;;14.87;;
48935;SDS011;34745;52.276;10.528;2022-10-22T05:58:35;21.27;;;15.00;;
48935;SDS011;34745;52.276;10.528;2022-10-22T06:01:02;20.30;;;14.10;;
48935;SDS011;34745;52.276;10.528;2022-10-22T06:03:30;24.50;;;15.73;;
48935;SDS011;34745;52.276;10.528;2022-10-22T06:05:58;20.83;;;15.23;;
48935;SDS011;34745;52.276;10.528;2022-10-22T06:08:27;27.30;;;15.90;;
48935;SDS011;34745;52.276;10.528;2022-10-22T06:10:56;24.80;;;15.60;;
48935;SDS011;34745;52.276;10.528;2022-10-22T06:13:23;21.67;;;16.63;;
48935;SDS011;34745;52.276;10.528;2022-10-22T06:15:50;21.07;;;15.63;;
48935;SDS011;34745;52.276;10.528;2022-10-22T06:18:21;24.57;;;15.30;;
48935;SDS011;34745;52.276;10.528;2022-10-22T06:20:48;24.90;;;16.20;;
48935;SDS011;34745;52.276;10.528;2022-10-22T06:23:15;22.73;;;14.80;;
48935;SDS011;34745;52.276;10.528;2022-10-22T06:25:42;23.93;;;15.30;;
48935;SDS011;34745;52.276;10.528;2022-10-22T06:28:11;19.57;;;15.10;;
48935;SDS011;34745;52.276;10.528;2022-10-22T06:30:38;25.57;;;15.33;;
48935;SDS011;34745;52.276;10.528;2022-10-22T06:33:11;25.33;;;16.10;;
48935;SDS011;34745;52.276;10.528;2022-10-22T06:35:37;21.80;;;15.37;;
48935;SDS011;34745;52.276;10.528;2022-10-22T06:38:05;21.17;;;14.67;;
48935;SDS011;34745;52.276;10.528;2022-10-22T06:40:32;20.27;;;15.20;;
48935;SDS011;34745;52.276;10.528;2022-10-22T06:42:59;19.00;;;14.10;;
48935;SDS011;34745;52.276;10.528;2022-10-22T06:45:27;23.20;;;13.80;;
48935;SDS011;34745;52.276;10.528;2022-10-22T06:47:55;19.50;;;13.87;;
48935;SDS011;34745;52.276;10.528;2022-10-22T06:50:22;25.47;;;14.20;;
48935;SDS011;34745;52.276;10.528;2022-10-22T06:52:48;19.57;;;14.67;;
48935;SDS011;34745;52.276;10.528;2022-10-22T06:55:16;20.37;;;13.37;;
48935;SDS011;34745;52.276;10.528;2022-10-22T06:57:43;23.53;;;14.63;;
48935;SDS011;34745;52.276;10.528;2022-10-22T07:00:10;22.30;;;13.67;;
48935;SDS011;34745;52.276;10.528;2022-10-22T07:02:40;21.87;;;13.27;;
48935;SDS011;34745;52.276;10.528;2022-10-22T07:05:08;21.43;;;14.43;;
48935;SDS011;34745;52.276;10.528;2022-10-22T07:07:35;17.70;;;13.90;;
48935;SDS011;34745;52.276;10.528;2022-10-22T07:10:02;17.60;;;13.63;;
48935;SDS011;34745;52.276;10.528;2022-10-22T07:12:29;21.23;;;13.07;;
48935;SDS011;34745;52.276;10.528;2022-10-22T07:14:59;20.13;;;13.67;;
48935;SDS011;34745;52.276;10.528;2022-10-22T07:17:26;19.43;;;13.40;;
48935;SDS011;34745;52.276;10.528;2022-10-22T07:19:54;17.30;;;13.13;;
48935;SDS011;34745;52.276;10.528;2022-10-22T07:22:21;19.20;;;13.07;;
48935;SDS011;34745;52.276;10.528;2022-10-22T07:24:49;20.73;;;13.07;;
48935;SDS011;34745;52.276;10.528;2022-10-22T07:27:16;26.33;;;12.97;;
48935;SDS011;34745;52.276;10.528;2022-10-22T07:29:43;16.70;;;12.37;;
48935;SDS011;34745;52.276;10.528;2022-10-22T07:32:10;17.27;;;12.87;;
48935;SDS011;34745;52.276;10.528;2022-10-22T07:34:38;24.13;;;13.70;;
48935;SDS011;34745;52.276;10.528;2022-10-22T07:37:10;17.83;;;13.00;;
48935;SDS011;34745;52.276;10.528;2022-10-22T07:39:37;29.03;;;13.20;;
48935;SDS011;34745;52.276;10.528;2022-10-22T07:42:04;18.60;;;12.93;;
48935;SDS011;34745;52.276;10.528;2022-10-22T07:44:32;17.70;;;13.27;;
48935;SDS011;34745;52.276;10.528;2022-10-22T07:46:58;23.73;;;14.27;;
48935;SDS011;34745;52.276;10.528;2022-10-22T07:49:25;16.80;;;13.30;;
48935;SDS011;34745;52.276;10.528;2022-10-22T07:51:52;20.03;;;14.37;;
48935;SDS011;34745;52.276;10.528;2022-10-22T07:54:21;20.03;;;13.87;;
48935;SDS011;34745;52.276;10.528;2022-10-22T07:56:48;17.13;;;12.77;;
48935;SDS011;34745;52.276;10.528;2022-10-22T07:59:15;27.40;;;13.30;;
48935;SDS011;34745;52.276;10.528;2022-10-22T08:01:42;22.53;;;13.27;;
48935;SDS011;34745;52.276;10.528;2022-10-22T08:04:09;18.23;;;13.33;;
48935;SDS011;34745;52.276;10.528;2022-10-22T08:06:36;24.27;;;13.60;;
48935;SDS011;34745;52.276;10.528;2022-10-22T08:09:09;22.60;;;13.70;;
48935;SDS011;34745;52.276;10.528;2022-10-22T08:11:38;19.60;;;12.23;;
48935;SDS011;34745;52.276;10.528;2022-10-22T08:14:05;16.43;;;12.23;;
48935;SDS011;34745;52.276;10.528;2022-10-22T08:16:32;20.23;;;13.10;;
48935;SDS011;34745;52.276;10.528;2022-10-22T08:18:59;17.00;;;12.87;;
48935;SDS011;34745;52.276;10.528;2022-10-22T08:21:26;21.53;;;12.73;;
48935;SDS011;34745;52.276;10.528;2022-10-22T08:23:53;16.87;;;12.67;;
48935;SDS011;34745;52.276;10.528;2022-10-22T08:26:20;14.93;;;10.70;;
48935;SDS011;34745;52.276;10.528;2022-10-22T08:28:49;19.50;;;11.70;;
48935;SDS011;34745;52.276;10.528;2022-10-22T08:31:16;17.07;;;11.73;;
48935;SDS011;34745;52.276;10.528;2022-10-22T08:33:43;23.73;;;11.67;;
48935;SDS011;34745;52.276;10.528;2022-10-22T08:36:10;21.37;;;10.73;;
48935;SDS011;34745;52.276;10.528;2022-10-22T08:38:37;13.77;;;10.30;;
48935;SDS011;34745;52.276;10.528;2022-10-22T08:41:06;13.70;;;8.87;;
48935;SDS011;34745;52.276;10.528;2022-10-22T08:46:33;14.13;;;9.10;;
48935;SDS011;34745;52.276;10.528;2022-10-22T08:49:14;17.63;;;9.30;;
48935;SDS011;34745;52.276;10.528;2022-10-22T08:51:45;17.73;;;8.60;;
48935;SDS011;34745;52.276;10.528;2022-10-22T08:54:18;16.53;;;9.23;;
48935;SDS011;34745;52.276;10.528;2022-10-22T08:56:55;15.40;;;9.30;;
48935;SDS011;34745;52.276;10.528;2022-10-22T08:59:38;15.83;;;9.37;;
48935;SDS011;34745;52.276;10.528;2022-10-22T09:02:13;16.50;;;9.67;;
48935;SDS011;34745;52.276;10.528;2022-10-22T09:04:55;16.83;;;9.47;;
48935;SDS011;34745;52.276;10.528;2022-10-22T09:07:28;15.57;;;10.27;;
48935;SDS011;34745;52.276;10.528;2022-10-22T09:09:56;23.60;;;10.77;;
48935;SDS011;34745;52.276;10.528;2022-10-22T09:12:26;19.80;;;10.70;;
48935;SDS011;34745;52.276;10.528;2022-10-22T09:14:55;20.50;;;10.50;;
48935;SDS011;34745;52.276;10.528;2022-10-22T09:17:24;21.80;;;9.73;;
48935;SDS011;34745;52.276;10.528;2022-10-22T09:20:03;26.87;;;10.03;;
48935;SDS011;34745;52.276;10.528;2022-10-22T09:22:37;16.60;;;8.67;;
48935;SDS011;34745;52.276;10.528;2022-10-22T09:25:13;21.57;;;8.13;;
48935;SDS011;34745;52.276;10.528;2022-10-22T09:27:45;18.70;;;7.17;;
48935;SDS011;34745;52.276;10.528;2022-10-22T09:30:16;15.20;;;6.60;;
48935;SDS011;34745;52.276;10.528;2022-10-22T09:32:44;19.30;;;7.03;;
48935;SDS011;34745;52.276;10.528;2022-10-22T09:35:12;12.93;;;5.80;;
48935;SDS011;34745;52.276;10.528;2022-10-22T09:37:46;16.03;;;5.53;;
48935;SDS011;34745;52.276;10.528;2022-10-22T09:40:15;12.73;;;5.73;;
48935;SDS011;34745;52.276;10.528;2022-10-22T09:42:44;12.70;;;5.10;;
48935;SDS011;34745;52.276;10.528;2022-10-22T09:45:17;9.90;;;5.23;;
48935;SDS011;34745;52.276;10.528;2022-10-22T09:47:45;10.00;;;4.60;;
48935;SDS011;34745;52.276;10.528;2022-10-22T09:50:28;10.40;;;3.43;;
48935;SDS011;34745;52.276;10.528;2022-10-22T09:53:03;9.20;;;3.63;;
48935;SDS011;34745;52.276;10.528;2022-10-22T09:55:37;12.23;;;4.07;;
48935;SDS011;34745;52.276;10.528;2022-10-22T09:58:07;8.00;;;3.30;;
48935;SDS011;34745;52.276;10.528;2022-10-22T10:00:39;8.03;;;3.20;;
48935;SDS011;34745;52.276;10.528;2022-10-22T10:03:11;5.30;;;3.47;;
48935;SDS011;34745;52.276;10.528;2022-10-22T10:05:43;11.33;;;4.30;;
48935;SDS011;34745;52.276;10.528;2022-10-22T10:08:14;13.53;;;3.63;;
48935;SDS011;34745;52.276;10.528;2022-10-22T10:10:44;15.15;;;5.00;;
48935;SDS011;34745;52.276;10.528;2022-10-22T10:16:20;7.13;;;3.10;;
48935;SDS011;34745;52.276;10.528;2022-10-22T10:19:03;5.60;;;3.38;;
48935;SDS011;34745;52.276;10.528;2022-10-22T10:21:44;5.70;;;3.08;;
48935;SDS011;34745;52.276;10.528;2022-10-22T10:24:21;7.47;;;3.38;;
48935;SDS011;34745;52.276;10.528;2022-10-22T10:26:55;6.90;;;2.88;;
48935;SDS011;34745;52.276;10.528;2022-10-22T10:29:30;9.18;;;2.75;;
48935;SDS011;34745;52.276;10.528;2022-10-22T10:32:15;5.10;;;3.10;;
48935;SDS011;34745;52.276;10.528;2022-10-22T10:35:03;9.10;;;3.15;;
48935;SDS011;34745;52.276;10.528;2022-10-22T10:37:42;7.57;;;3.47;;
48935;SDS011;34745;52.276;10.528;2022-10-22T10:40:18;6.68;;;3.05;;
48935;SDS011;34745;52.276;10.528;2022-10-22T10:42:57;8.48;;;3.35;;
48935;SDS011;34745;52.276;10.528;2022-10-22T10:45:29;8.40;;;3.30;;
48935;SDS011;34745;52.276;10.528;2022-10-22T10:48:08;6.75;;;3.00;;
48935;SDS011;34745;52.276;10.528;2022-10-22T10:50:48;5.70;;;3.40;;
48935;SDS011;34745;52.276;10.528;2022-10-22T10:53:25;8.23;;;3.20;;
48935;SDS011;34745;52.276;10.528;2022-10-22T10:56:05;6.22;;;3.60;;
48935;SDS011;34745;52.276;10.528;2022-10-22T10:58:41;10.68;;;3.90;;
48935;SDS011;34745;52.276;10.528;2022-10-22T11:01:18;5.07;;;3.33;;
48935;SDS011;34745;52.276;10.528;2022-10-22T11:04:04;6.20;;;3.20;;
48935;SDS011;34745;52.276;10.528;2022-10-22T11:06:54;7.13;;;3.08;;
48935;SDS011;34745;52.276;10.528;2022-10-22T11:09:47;6.97;;;2.78;;
48935;SDS011;34745;52.276;10.528;2022-10-22T11:12:20;9.95;;;2.75;;
48935;SDS011;34745;52.276;10.528;2022-10-22T11:14:54;6.30;;;2.95;;
48935;SDS011;34745;52.276;10.528;2022-10-22T11:17:28;4.47;;;2.90;;
48935;SDS011;34745;52.276;10.528;2022-10-22T11:20:03;8.48;;;3.03;;
48935;SDS011;34745;52.276;10.528;2022-10-22T11:22:40;11.10;;;2.72;;
48935;SDS011;34745;52.276;10.528;2022-10-22T11:25:33;4.55;;;3.60;;
48935;SDS011;34745;52.276;10.528;2022-10-22T11:28:08;4.50;;;2.70;;
48935;SDS011;34745;52.276;10.528;2022-10-22T11:30:40;4.60;;;2.72;;
48935;SDS011;34745;52.276;10.528;2022-10-22T11:33:11;8.30;;;3.33;;
48935;SDS011;34745;52.276;10.528;2022-10-22T11:35:45;7.57;;;3.13;;
48935;SDS011;34745;52.276;10.528;2022-10-22T11:38:15;10.48;;;3.35;;
48935;SDS011;34745;52.276;10.528;2022-10-22T11:40:46;9.27;;;3.45;;
48935;SDS011;34745;52.276;10.528;2022-10-22T11:43:26;7.45;;;3.40;;
48935;SDS011;34745;52.276;10.528;2022-10-22T11:45:57;9.13;;;3.45;;
48935;SDS011;34745;52.276;10.528;2022-10-22T11:48:33;7.22;;;3.30;;
48935;SDS011;34745;52.276;10.528;2022-10-22T11:51:03;6.95;;;3.17;;
48935;SDS011;34745;52.276;10.528;2022-10-22T11:53:55;9.45;;;3.22;;
48935;SDS011;34745;52.276;10.528;2022-10-22T11:56:24;4.20;;;3.10;;
48935;SDS011;34745;52.276;10.528;2022-10-22T11:58:52;5.22;;;3.17;;
48935;SDS011;34745;52.276;10.528;2022-10-22T12:01:22;4.75;;;3.13;;
48935;SDS011;34745;52.276;10.528;2022-10-22T12:03:52;11.30;;;3.47;;
48935;SDS011;34745;52.276;10.528;2022-10-22T12:09:29;5.10;;;3.10;;
48935;SDS011;34745;52.276;10.528;2022-10-22T12:12:03;4.60;;;2.80;;
48935;SDS011;34745;52.276;10.528;2022-10-22T12:14:49;8.20;;;2.97;;
48935;SDS011;34745;52.276;10.528;2022-10-22T12:17:19;8.48;;;3.03;;
48935;SDS011;34745;52.276;10.528;2022-10-22T12:19:49;6.68;;;3.13;;
48935;SDS011;34745;52.276;10.528;2022-10-22T12:22:25;3.78;;;2.90;;
48935;SDS011;34745;52.276;10.528;2022-10-22T12:24:55;3.88;;;2.65;;
48935;SDS011;34745;52.276;10.528;2022-10-22T12:27:32;7.63;;;3.20;;
48935;SDS011;34745;52.276;10.528;2022-10-22T12:30:01;7.50;;;3.58;;
48935;SDS011;34745;52.276;10.528;2022-10-22T12:32:42;6.32;;;3.38;;
48935;SDS011;34745;52.276;10.528;2022-10-22T12:35:14;4.70;;;3.22;;
48935;SDS011;34745;52.276;10.528;2022-10-22T12:37:44;7.00;;;2.83;;
48935;SDS011;34745;52.276;10.528;2022-10-22T12:40:16;11.68;;;3.67;;
48935;SDS011;34745;52.276;10.528;2022-10-22T12:42:48;8.60;;;3.70;;
48935;SDS011;34745;52.276;10.528;2022-10-22T12:45:16;6.97;;;3.08;;
48935;SDS011;34745;52.276;10.528;2022-10-22T12:47:44;7.28;;;3.03;;
48935;SDS011;34745;52.276;10.528;2022-10-22T12:50:15;9.20;;;3.30;;
48935;SDS011;34745;52.276;10.528;2022-10-22T12:52:46;6.25;;;2.90;;
48935;SDS011;34745;52.276;10.528;2022-10-22T12:55:14;3.72;;;2.65;;
48935;SDS011;34745;52.276;10.528;2022-10-22T12:57:45;10.60;;;2.72;;
48935;SDS011;34745;52.276;10.528;2022-10-22T13:00:20;6.18;;;2.88;;
48935;SDS011;34745;52.276;10.528;2022-10-22T13:02:49;7.05;;;2.90;;
48935;SDS011;34745;52.276;10.528;2022-10-22T13:05:21;5.80;;;2.65;;
48935;SDS011;34745;52.276;10.528;2022-10-22T13:07:59;8.32;;;2.53;;
48935;SDS011;34745;52.276;10.528;2022-10-22T13:10:30;7.55;;;2.70;;
48935;SDS011;34745;52.276;10.528;2022-10-22T13:12:59;13.45;;;3.20;;
48935;SDS011;34745;52.276;10.528;2022-10-22T13:15:34;10.80;;;2.90;;
48935;SDS011;34745;52.276;10.528;2022-10-22T13:18:04;9.35;;;3.30;;
48935;SDS011;34745;52.276;10.528;2022-10-22T13:20:48;6.00;;;3.25;;
48935;SDS011;34745;52.276;10.528;2022-10-22T13:23:19;7.53;;;3.10;;
48935;SDS011;34745;52.276;10.528;2022-10-22T13:25:55;10.10;;;3.08;;
48935;SDS011;34745;52.276;10.528;2022-10-22T13:28:24;9.15;;;3.00;;
48935;SDS011;34745;52.276;10.528;2022-10-22T13:30:53;14.68;;;5.03;;
48935;SDS011;34745;52.276;10.528;2022-10-22T13:33:22;9.77;;;4.65;;
48935;SDS011;34745;52.276;10.528;2022-10-22T13:35:52;11.45;;;3.60;;
48935;SDS011;34745;52.276;10.528;2022-10-22T13:38:22;12.82;;;3.35;;
48935;SDS011;34745;52.276;10.528;2022-10-22T13:40:50;9.77;;;3.17;;
48935;SDS011;34745;52.276;10.528;2022-10-22T13:43:17;12.10;;;3.20;;
48935;SDS011;34745;52.276;10.528;2022-10-22T13:45:46;10.00;;;3.78;;
48935;SDS011;34745;52.276;10.528;2022-10-22T13:48:15;6.07;;;3.30;;
48935;SDS011;34745;52.276;10.528;2022-10-22T13:50:45;12.98;;;3.88;;
48935;SDS011;34745;52.276;10.528;2022-10-22T13:53:13;12.93;;;3.38;;
48935;SDS011;34745;52.276;10.528;2022-10-22T13:55:45;7.13;;;3.17;;
48935;SDS011;34745;52.276;10.528;2022-10-22T13:58:13;13.00;;;3.20;;
48935;SDS011;34745;52.276;10.528;2022-10-22T14:00:45;9.93;;;3.20;;
48935;SDS011;34745;52.276;10.528;2022-10-22T14:03:15;6.28;;;2.95;;
48935;SDS011;34745;52.276;10.528;2022-10-22T14:05:45;8.40;;;3.45;;
48935;SDS011;34745;52.276;10.528;2022-10-22T14:08:14;6.45;;;3.28;;
48935;SDS011;34745;52.276;10.528;2022-10-22T14:10:43;7.35;;;3.28;;
48935;SDS011;34745;52.276;10.528;2022-10-22T14:13:13;9.15;;;3.30;;
48935;SDS011;34745;52.276;10.528;2022-10-22T14:15:42;5.60;;;3.35;;
48935;SDS011;34745;52.276;10.528;2022-10-22T14:18:13;11.88;;;3.58;;
48935;SDS011;34745;52.276;10.528;2022-10-22T14:20:50;7.07;;;3.03;;
48935;SDS011;34745;52.276;10.528;2022-10-22T14:23:19;10.95;;;3.47;;
48935;SDS011;34745;52.276;10.528;2022-10-22T14:25:48;14.15;;;3.22;;
48935;SDS011;34745;52.276;10.528;2022-10-22T14:28:18;5.35;;;3.22;;
48935;SDS011;34745;52.276;10.528;2022-10-22T14:30:45;9.00;;;3.72;;
48935;SDS011;34745;52.276;10.528;2022-10-22T14:33:14;8.90;;;3.42;;
48935;SDS011;34745;52.276;10.528;2022-10-22T14:35:43;9.38;;;3.45;;
48935;SDS011;34745;52.276;10.528;2022-10-22T14:38:11;8.82;;;3.70;;
48935;SDS011;34745;52.276;10.528;2022-10-22T14:40:38;8.88;;;3.33;;
48935;SDS011;34745;52.276;10.528;2022-10-22T14:43:17;7.20;;;3.13;;
48935;SDS011;34745;52.276;10.528;2022-10-22T14:45:45;10.80;;;4.18;;
48935;SDS011;34745;52.276;10.528;2022-10-22T14:48:13;9.38;;;3.83;;